KDSV

Dansville Municipal Airport

Dansville, New York, USA
METAR KDSV 161554Z AUTO 00000KT 10SM OVC026 02/M01 A2972 RMK AO2 SLP079 T00221006
Observed Flight Rules
Nov-16 @ 15:54 UTC (34 minutes ago) Marginal Visual Flight Rules
Visibility Clouds
10 miles
  • Overcast at 2,600' AGL
Temperatures Readings
Current 2°C / 36°F
Dewpoint -1°C / 30°F
Humidity 81%
Altimeter 29.72" Hg
Pressure 1007.9 hPa
Elevation 198
METAR KDSV 161554Z AUTO 00000KT 10SM OVC026 02/M01 A2972 RMK AO2 SLP079 T00221006
Observed Flight Rules
Nov-16 @ 15:54 UTC
(34 minutes ago)
MVFR
Clouds
  • Overcast at 2,600' AGL
Temperature Dewpoint
2°C / 36°F -1°C / 30°F
Humidity Altimeter Pressure
81% 29.72" Hg 1007.9 hPa